createdAt,value
2018-08-23T00:01:36.949Z,11.70
2018-08-23T00:04:07.890Z,11.83
2018-08-23T00:06:40.766Z,11.27
2018-08-23T00:09:09.951Z,12.30
2018-08-23T00:11:41.923Z,10.70
2018-08-23T00:14:11.655Z,11.90
2018-08-23T00:16:42.750Z,11.37
2018-08-23T00:19:11.952Z,11.83
2018-08-23T00:21:42.181Z,12.57
2018-08-23T00:24:21.325Z,11.80
2018-08-23T00:26:59.019Z,11.23
2018-08-23T00:29:29.611Z,11.53
2018-08-23T00:32:12.995Z,11.97
2018-08-23T00:34:42.198Z,11.30
2018-08-23T00:37:19.221Z,11.37
2018-08-23T00:39:48.402Z,11.63
2018-08-23T00:42:18.808Z,11.63
2018-08-23T00:45:02.162Z,11.20
2018-08-23T00:47:32.497Z,11.97
2018-08-23T00:50:02.973Z,11.17
2018-08-23T00:52:40.351Z,11.90
2018-08-23T00:57:50.635Z,10.67
2018-08-23T01:00:24.339Z,10.73
2018-08-23T01:02:57.892Z,11.27
2018-08-23T01:05:35.351Z,11.37
2018-08-23T01:08:05.204Z,11.53
2018-08-23T01:10:35.085Z,11.67
2018-08-23T01:13:04.428Z,12.47
2018-08-23T01:15:33.982Z,12.90
2018-08-23T01:18:11.631Z,12.30
2018-08-23T01:20:41.852Z,12.40
2018-08-23T01:23:11.086Z,12.20
2018-08-23T01:25:41.863Z,11.93
2018-08-23T01:28:11.185Z,11.53
2018-08-23T01:30:42.094Z,12.63
2018-08-23T01:33:14.865Z,11.70
2018-08-23T01:35:45.252Z,12.43
2018-08-23T01:38:14.822Z,11.70
2018-08-23T01:40:46.958Z,12.13
2018-08-23T01:43:16.085Z,11.73
2018-08-23T01:45:48.608Z,12.30
2018-08-23T01:48:18.192Z,12.70
2018-08-23T01:50:51.204Z,12.40
2018-08-23T01:53:20.563Z,12.80
2018-08-23T01:55:57.827Z,13.73
2018-08-23T01:58:26.925Z,14.80
2018-08-23T02:01:17.987Z,14.07
2018-08-23T02:03:47.525Z,14.10
2018-08-23T02:06:16.750Z,16.57
2018-08-23T02:08:47.063Z,15.30
2018-08-23T02:11:16.588Z,16.53
2018-08-23T02:13:49.084Z,17.50
2018-08-23T02:16:18.399Z,17.53
2018-08-23T02:18:47.854Z,16.53
2018-08-23T02:21:16.952Z,17.73
2018-08-23T02:23:53.272Z,17.40
2018-08-23T02:26:22.468Z,15.93
2018-08-23T02:28:51.605Z,17.03
2018-08-23T02:31:21.258Z,18.20
2018-08-23T02:33:50.525Z,18.70
2018-08-23T02:36:19.803Z,17.87
2018-08-23T02:38:53.157Z,18.47
2018-08-23T02:41:22.393Z,17.93
2018-08-23T02:43:51.989Z,16.43
2018-08-23T02:46:21.084Z,17.00
2018-08-23T02:48:50.165Z,16.43
2018-08-23T02:51:41.175Z,18.17
2018-08-23T02:54:12.447Z,16.70
2018-08-23T02:56:46.216Z,18.13
2018-08-23T02:59:15.363Z,18.83
2018-08-23T03:01:49.426Z,18.20
2018-08-23T03:04:25.384Z,17.17
2018-08-23T03:06:58.949Z,18.13
2018-08-23T03:09:33.769Z,16.23
2018-08-23T03:12:07.225Z,16.47
2018-08-23T03:14:37.040Z,15.87
2018-08-23T03:17:13.303Z,16.37
2018-08-23T03:19:55.556Z,15.87
2018-08-23T03:22:25.187Z,16.83
2018-08-23T03:24:54.407Z,16.10
2018-08-23T03:27:23.565Z,16.47
2018-08-23T03:29:53.086Z,16.10
2018-08-23T03:32:22.253Z,17.20
2018-08-23T03:34:51.439Z,19.07
2018-08-23T03:37:21.009Z,20.43
2018-08-23T03:39:50.133Z,18.63
2018-08-23T03:42:19.212Z,20.50
2018-08-23T03:44:52.072Z,18.47
2018-08-23T03:47:21.364Z,18.47
2018-08-23T03:49:51.519Z,18.33
2018-08-23T03:52:23.170Z,18.77
2018-08-23T03:54:59.407Z,19.53
2018-08-23T03:57:33.686Z,18.63
2018-08-23T04:00:03.037Z,19.43
2018-08-23T04:02:32.688Z,18.57
2018-08-23T04:05:07.989Z,19.10
2018-08-23T04:07:38.488Z,19.30
2018-08-23T04:10:07.712Z,19.63
2018-08-23T04:12:41.565Z,17.93
2018-08-23T04:15:18.105Z,19.33
2018-08-23T04:17:47.894Z,20.27
2018-08-23T04:20:17.162Z,19.87
2018-08-23T04:22:46.750Z,18.87
2018-08-23T04:25:15.911Z,18.23
2018-08-23T04:27:45.150Z,18.30
2018-08-23T04:30:14.743Z,18.80
2018-08-23T04:32:48.069Z,17.60
2018-08-23T04:35:22.753Z,17.77
2018-08-23T04:37:52.499Z,18.23
2018-08-23T04:40:21.664Z,18.87
2018-08-23T04:42:50.821Z,19.07
2018-08-23T04:45:25.357Z,18.27
2018-08-23T04:47:58.896Z,19.77
2018-08-23T04:50:28.048Z,19.63
2018-08-23T04:52:57.198Z,19.23
2018-08-23T04:55:26.945Z,20.20
2018-08-23T04:57:57.376Z,19.10
2018-08-23T05:00:28.632Z,19.73
2018-08-23T05:02:57.878Z,19.30
2018-08-23T05:05:31.064Z,19.23
2018-08-23T05:08:00.236Z,20.10
2018-08-23T05:10:33.251Z,21.03
2018-08-23T05:13:02.670Z,18.97
2018-08-23T05:15:35.949Z,20.93
2018-08-23T05:18:05.122Z,20.60
2018-08-23T05:20:37.167Z,21.30
2018-08-23T05:23:06.363Z,20.80
2018-08-23T05:25:39.392Z,19.70
2018-08-23T05:28:17.646Z,21.73
2018-08-23T05:30:47.604Z,20.97
2018-08-23T05:33:19.201Z,22.03
2018-08-23T05:35:48.509Z,21.33
2018-08-23T05:38:18.497Z,22.73
2018-08-23T05:40:55.773Z,22.53
2018-08-23T05:43:24.929Z,20.87
2018-08-23T05:45:55.577Z,21.73
2018-08-23T05:48:31.891Z,22.57
2018-08-23T05:51:06.744Z,23.90
2018-08-23T05:53:40.996Z,23.53
2018-08-23T05:56:10.657Z,21.97
2018-08-23T05:58:39.975Z,23.00
2018-08-23T06:01:09.210Z,21.97
2018-08-23T06:03:39.271Z,22.70
2018-08-23T06:06:08.754Z,21.67
2018-08-23T06:08:45.865Z,20.60
2018-08-23T06:11:15.664Z,21.00
2018-08-23T06:13:44.885Z,19.37
2018-08-23T06:16:14.081Z,17.57
2018-08-23T06:18:43.525Z,17.50
2018-08-23T06:21:12.772Z,17.57
2018-08-23T06:24:02.194Z,16.77
2018-08-23T06:26:43.960Z,16.60
2018-08-23T06:29:16.977Z,15.27
2018-08-23T06:31:57.439Z,16.03
2018-08-23T06:34:35.037Z,14.87
2018-08-23T06:37:04.634Z,15.50
2018-08-23T06:39:33.866Z,14.77
2018-08-23T06:42:03.967Z,14.93
2018-08-23T06:44:41.407Z,14.80
2018-08-23T06:47:12.606Z,15.03
2018-08-23T06:49:43.284Z,14.30
2018-08-23T06:54:51.289Z,13.80
2018-08-23T06:57:26.472Z,14.37
2018-08-23T06:59:55.613Z,13.50
2018-08-23T07:02:32.440Z,12.87
2018-08-23T07:05:01.573Z,12.67
2018-08-23T07:07:31.863Z,12.73
2018-08-23T07:10:01.047Z,11.97
2018-08-23T07:12:37.629Z,12.53
2018-08-23T07:15:07.131Z,11.63
2018-08-23T07:17:37.626Z,11.37
2018-08-23T07:20:10.301Z,11.90
2018-08-23T07:22:39.848Z,11.50
2018-08-23T07:25:14.174Z,12.27
2018-08-23T07:27:43.459Z,13.30
2018-08-23T07:30:16.902Z,11.60
2018-08-23T07:32:47.441Z,10.93
2018-08-23T07:35:19.935Z,11.13
2018-08-23T07:37:51.732Z,12.20
2018-08-23T07:40:22.200Z,11.73
2018-08-23T07:42:52.610Z,11.33
2018-08-23T07:45:21.807Z,12.50
2018-08-23T07:47:54.007Z,11.40
2018-08-23T07:50:28.127Z,11.43
2018-08-23T07:52:57.371Z,12.50
2018-08-23T07:55:26.508Z,11.53
2018-08-23T07:57:58.957Z,12.70
2018-08-23T08:00:32.071Z,12.53
2018-08-23T08:03:01.344Z,18.17
2018-08-23T08:05:32.478Z,13.17
2018-08-23T08:08:02.776Z,11.40
2018-08-23T08:10:36.811Z,10.83
2018-08-23T08:13:06.516Z,10.23
2018-08-23T08:15:35.707Z,8.97
2018-08-23T08:18:14.983Z,10.60
2018-08-23T08:20:48.740Z,11.50
2018-08-23T08:23:18.589Z,10.57
2018-08-23T08:25:47.771Z,11.20
2018-08-23T08:28:18.190Z,11.50
2018-08-23T08:30:48.128Z,11.23
2018-08-23T08:33:22.272Z,10.70
2018-08-23T08:35:55.868Z,11.23
2018-08-23T08:38:25.050Z,10.07
2018-08-23T08:40:54.251Z,10.07
2018-08-23T08:43:24.937Z,8.23
2018-08-23T08:45:54.760Z,7.50
2018-08-23T08:48:28.933Z,8.87
2018-08-23T08:51:14.413Z,7.77
2018-08-23T08:53:44.148Z,6.23
2018-08-23T08:56:13.313Z,6.77
2018-08-23T08:58:43.231Z,6.13
2018-08-23T09:01:12.432Z,5.83
2018-08-23T09:03:41.698Z,5.97
2018-08-23T09:06:12.040Z,4.67
2018-08-23T09:08:41.190Z,4.63
2018-08-23T09:11:10.433Z,5.83
2018-08-23T09:13:45.095Z,4.40
2018-08-23T09:16:14.238Z,5.60
2018-08-23T09:18:45.837Z,5.30
2018-08-23T09:21:15.382Z,5.70
2018-08-23T09:23:44.661Z,8.97
2018-08-23T09:26:13.846Z,4.87
2018-08-23T09:28:43.301Z,4.87
2018-08-23T09:31:13.203Z,4.47
2018-08-23T09:33:45.446Z,5.93
2018-08-23T09:36:14.938Z,3.90
2018-08-23T09:38:47.848Z,6.63
2018-08-23T09:41:17.077Z,3.40
2018-08-23T09:43:50.414Z,3.43
2018-08-23T09:46:19.753Z,4.17
2018-08-23T09:48:52.874Z,4.77
2018-08-23T09:51:27.552Z,3.73
2018-08-23T09:53:57.400Z,3.13
2018-08-23T09:56:29.534Z,2.77
2018-08-23T09:58:59.336Z,2.57
2018-08-23T10:01:33.551Z,3.40
2018-08-23T10:04:07.750Z,3.17
2018-08-23T10:06:42.277Z,3.03
2018-08-23T10:09:25.142Z,4.23
2018-08-23T10:12:02.224Z,3.13
2018-08-23T10:14:36.389Z,3.80
2018-08-23T10:17:12.224Z,4.37
2018-08-23T10:19:46.809Z,3.80
2018-08-23T10:22:23.011Z,3.80
2018-08-23T10:24:53.429Z,3.77
2018-08-23T10:27:22.630Z,5.20
2018-08-23T10:29:51.819Z,4.07
2018-08-23T10:32:21.502Z,4.37
2018-08-23T10:34:50.701Z,3.90
2018-08-23T10:37:19.990Z,3.30
2018-08-23T10:39:49.486Z,4.47
2018-08-23T10:42:20.360Z,4.63
2018-08-23T10:44:49.558Z,4.00
2018-08-23T10:47:27.933Z,5.20
2018-08-23T10:49:57.197Z,5.47
2018-08-23T10:52:26.528Z,5.90
2018-08-23T10:54:56.043Z,6.30
2018-08-23T10:57:27.928Z,5.97
2018-08-23T10:59:57.160Z,5.87
2018-08-23T11:02:29.736Z,7.93
2018-08-23T11:04:58.976Z,10.00
2018-08-23T11:07:40.375Z,11.47
2018-08-23T11:10:14.861Z,8.83
2018-08-23T11:15:38.791Z,10.83
2018-08-23T11:18:13.153Z,14.07
2018-08-23T11:20:45.093Z,14.23
2018-08-23T11:23:19.299Z,13.67
2018-08-23T11:25:48.571Z,13.93
2018-08-23T11:30:52.830Z,16.90
2018-08-23T11:33:22.335Z,16.07
2018-08-23T11:35:51.595Z,15.60
2018-08-23T11:38:20.878Z,15.87
2018-08-23T11:40:50.384Z,13.73
2018-08-23T11:43:19.588Z,16.10
2018-08-23T11:45:57.462Z,17.67
2018-08-23T11:48:26.919Z,16.47
2018-08-23T11:50:56.450Z,14.70
2018-08-23T11:53:25.788Z,16.07
2018-08-23T11:55:55.567Z,15.70
2018-08-23T11:58:24.831Z,15.17
2018-08-23T12:01:07.076Z,14.97
2018-08-23T12:03:36.554Z,15.03
2018-08-23T12:06:05.995Z,16.77
2018-08-23T12:08:35.221Z,14.37
2018-08-23T12:11:05.170Z,14.93
2018-08-23T12:13:34.330Z,13.43
2018-08-23T12:16:11.017Z,15.93
2018-08-23T12:18:40.612Z,15.50
2018-08-23T12:21:10.087Z,14.80
2018-08-23T12:23:39.272Z,16.57
2018-08-23T12:26:16.662Z,17.90
2018-08-23T12:28:51.003Z,15.97
2018-08-23T12:31:20.240Z,16.43
2018-08-23T12:33:49.598Z,17.40
2018-08-23T12:37:26.707Z,15.63
2018-08-23T12:40:01.094Z,16.73
2018-08-23T12:42:35.564Z,16.93
2018-08-23T12:45:04.923Z,19.40
2018-08-23T12:47:34.132Z,17.43
2018-08-23T12:50:05.280Z,17.10
2018-08-23T12:52:34.851Z,18.23
2018-08-23T12:55:04.138Z,17.83
2018-08-23T12:57:33.713Z,16.93
2018-08-23T13:00:02.919Z,15.70
2018-08-23T13:02:32.266Z,16.77
2018-08-23T13:05:01.789Z,15.67
2018-08-23T13:07:31.965Z,14.00
2018-08-23T13:12:40.424Z,15.87
2018-08-23T13:15:09.670Z,13.00
2018-08-23T13:17:39.569Z,14.10
2018-08-23T13:20:08.771Z,12.97
2018-08-23T13:22:42.124Z,12.37
2018-08-23T13:25:13.581Z,10.93
2018-08-23T13:27:42.996Z,13.90
2018-08-23T13:30:12.178Z,13.00
2018-08-23T13:32:44.122Z,11.73
2018-08-23T13:35:13.409Z,11.03
2018-08-23T13:37:46.283Z,11.10
2018-08-23T13:40:16.555Z,11.90
2018-08-23T13:42:49.988Z,11.77
2018-08-23T13:45:19.332Z,12.47
2018-08-23T13:47:52.526Z,11.17
2018-08-23T13:50:21.806Z,10.80
2018-08-23T13:52:54.394Z,9.80
2018-08-23T13:55:23.973Z,11.87
2018-08-23T13:57:57.590Z,11.33
2018-08-23T14:00:31.817Z,9.97
2018-08-23T14:03:01.333Z,10.97
2018-08-23T14:05:30.580Z,11.27
2018-08-23T14:08:03.331Z,10.33
2018-08-23T14:10:32.499Z,11.17
2018-08-23T14:13:09.666Z,10.93
2018-08-23T14:15:44.233Z,9.97
2018-08-23T14:18:13.506Z,10.20
2018-08-23T14:20:43.012Z,10.27
2018-08-23T14:23:12.501Z,10.77
2018-08-23T14:27:11.726Z,10.67
2018-08-23T14:29:41.330Z,9.63
2018-08-23T14:32:17.926Z,11.20
2018-08-23T14:34:47.217Z,10.37
2018-08-23T14:37:19.665Z,9.20
2018-08-23T14:39:48.906Z,9.70
2018-08-23T14:42:21.982Z,10.03
2018-08-23T14:44:51.483Z,9.00
2018-08-23T14:47:28.818Z,10.47
2018-08-23T14:49:58.129Z,10.13
2018-08-23T14:52:27.654Z,9.30
2018-08-23T14:54:56.926Z,9.17
2018-08-23T14:57:32.494Z,8.87
2018-08-23T15:00:02.025Z,7.93
2018-08-23T15:02:31.300Z,8.77
2018-08-23T15:05:00.538Z,7.73
2018-08-23T15:07:32.613Z,7.60
2018-08-23T15:10:01.880Z,8.93
2018-08-23T15:12:34.368Z,7.53
2018-08-23T15:15:08.208Z,7.53
2018-08-23T15:17:37.438Z,6.57
2018-08-23T15:20:07.067Z,6.47
2018-08-23T15:22:40.320Z,6.43
2018-08-23T15:25:09.570Z,6.53
2018-08-23T15:27:43.594Z,7.07
2018-08-23T15:30:13.139Z,6.07
2018-08-23T15:32:44.165Z,6.00
2018-08-23T15:35:13.394Z,6.37
2018-08-23T15:37:49.948Z,5.60
2018-08-23T15:40:19.994Z,5.13
2018-08-23T15:42:49.259Z,5.07
2018-08-23T15:45:19.526Z,4.60
2018-08-23T15:47:52.134Z,4.37
2018-08-23T15:50:24.279Z,6.10
2018-08-23T15:52:55.677Z,4.97
2018-08-23T15:55:25.878Z,3.87
2018-08-23T15:57:58.693Z,5.17
2018-08-23T16:00:32.463Z,6.37
2018-08-23T16:03:01.689Z,5.70
2018-08-23T16:05:30.812Z,7.33
2018-08-23T16:08:03.436Z,6.63
2018-08-23T16:10:32.640Z,6.00
2018-08-23T16:13:09.557Z,4.93
2018-08-23T16:15:38.731Z,5.03
2018-08-23T16:18:13.676Z,4.67
2018-08-23T16:21:00.902Z,5.20
2018-08-23T16:23:30.163Z,5.37
2018-08-23T16:25:59.647Z,4.20
2018-08-23T16:28:28.804Z,6.20
2018-08-23T16:30:57.979Z,6.03
2018-08-23T16:33:27.459Z,5.33
2018-08-23T16:35:56.699Z,4.73
2018-08-23T16:38:33.565Z,5.17
2018-08-23T16:41:03.295Z,4.43
2018-08-23T16:43:32.538Z,6.13
2018-08-23T16:46:01.719Z,4.93
2018-08-23T16:48:31.577Z,5.77
2018-08-23T16:51:00.901Z,3.43
2018-08-23T16:53:30.167Z,4.40
2018-08-23T16:55:59.709Z,3.57
2018-08-23T16:58:29.063Z,3.80
2018-08-23T17:00:58.421Z,3.30
2018-08-23T17:03:31.923Z,4.00
2018-08-23T17:06:01.743Z,4.83
2018-08-23T17:08:34.797Z,3.80
2018-08-23T17:11:04.857Z,5.03
2018-08-23T17:13:38.481Z,3.83
2018-08-23T17:16:12.966Z,4.30
2018-08-23T17:18:42.519Z,4.70
2018-08-23T17:21:12.816Z,4.03
2018-08-23T17:23:49.378Z,3.90
2018-08-23T17:26:18.912Z,3.73
2018-08-23T17:28:48.237Z,3.67
2018-08-23T17:31:17.959Z,3.93
2018-08-23T17:33:47.663Z,3.40
2018-08-23T17:36:17.190Z,3.03
2018-08-23T17:38:49.717Z,4.70
2018-08-23T17:41:19.304Z,3.33
2018-08-23T17:43:52.639Z,3.10
2018-08-23T17:46:24.649Z,2.70
2018-08-23T17:48:56.384Z,2.20
2018-08-23T17:51:25.833Z,2.33
2018-08-23T17:53:58.133Z,2.33
2018-08-23T17:56:27.561Z,2.30
2018-08-23T17:59:00.321Z,2.20
2018-08-23T18:01:30.057Z,2.00
2018-08-23T18:04:02.544Z,2.53
2018-08-23T18:06:31.851Z,2.10
2018-08-23T18:09:08.969Z,2.70
2018-08-23T18:11:38.305Z,2.13
2018-08-23T18:14:07.800Z,2.00
2018-08-23T18:16:42.805Z,1.37
2018-08-23T18:19:15.480Z,1.70
2018-08-23T18:21:46.440Z,1.70
2018-08-23T18:24:15.831Z,1.90
2018-08-23T18:26:45.259Z,2.20
2018-08-23T18:29:16.442Z,1.90
2018-08-23T18:31:46.660Z,2.17
2018-08-23T18:34:19.003Z,1.60
2018-08-23T18:36:48.565Z,1.80
2018-08-23T18:39:21.507Z,1.63
2018-08-23T18:41:50.763Z,2.00
2018-08-23T18:44:23.501Z,1.87
2018-08-23T18:46:52.762Z,1.40
2018-08-23T18:49:25.965Z,1.37
2018-08-23T18:51:55.235Z,1.77
2018-08-23T18:54:32.392Z,1.63
2018-08-23T18:57:01.711Z,1.50
2018-08-23T18:59:31.159Z,1.30
2018-08-23T19:02:00.858Z,1.33
2018-08-23T19:04:33.477Z,1.67
2018-08-23T19:07:02.783Z,1.67
2018-08-23T19:09:35.642Z,1.87
2018-08-23T19:12:04.945Z,1.23
2018-08-23T19:14:38.903Z,1.50
2018-08-23T19:17:13.227Z,1.20
2018-08-23T19:19:42.551Z,1.77
2018-08-23T19:22:11.831Z,1.50
2018-08-23T19:24:41.938Z,1.90
2018-08-23T19:27:12.091Z,1.50
2018-08-23T19:29:45.372Z,1.57
2018-08-23T19:32:14.949Z,1.43
2018-08-23T19:34:48.244Z,1.10
2018-08-23T19:37:17.740Z,1.63
2018-08-23T19:39:52.613Z,1.17
2018-08-23T19:42:21.970Z,1.40
2018-08-23T19:45:00.712Z,1.33
2018-08-23T19:47:35.297Z,1.47
2018-08-23T19:50:08.033Z,2.07
2018-08-23T19:52:37.373Z,1.20
2018-08-23T19:55:08.128Z,1.40
2018-08-23T19:57:37.467Z,1.10
2018-08-23T20:00:08.156Z,1.70
2018-08-23T20:02:37.735Z,1.47
2018-08-23T20:05:08.038Z,1.00
2018-08-23T20:07:37.269Z,1.43
2018-08-23T20:10:07.335Z,1.33
2018-08-23T20:12:36.610Z,1.70
2018-08-23T20:15:13.295Z,1.27
2018-08-23T20:17:42.814Z,1.10
2018-08-23T20:20:15.878Z,1.20
2018-08-23T20:22:45.169Z,1.13
2018-08-23T20:25:17.544Z,1.03
2018-08-23T20:27:46.902Z,1.10
2018-08-23T20:30:19.855Z,1.03
2018-08-23T20:32:49.112Z,1.13
2018-08-23T20:35:21.613Z,1.20
2018-08-23T20:37:51.145Z,1.03
2018-08-23T20:40:24.479Z,1.10
2018-08-23T20:42:53.834Z,1.00
2018-08-23T20:45:26.130Z,1.20
2018-08-23T20:47:55.695Z,1.60
2018-08-23T20:50:28.882Z,1.63
2018-08-23T20:52:58.495Z,1.00
2018-08-23T20:55:31.392Z,0.90
2018-08-23T20:58:00.642Z,0.97
2018-08-23T21:00:37.445Z,0.73
2018-08-23T21:03:06.697Z,0.93
2018-08-23T21:05:35.981Z,1.10
2018-08-23T21:08:05.792Z,1.00
2018-08-23T21:10:39.004Z,1.00
2018-08-23T21:15:15.172Z,0.93
2018-08-23T21:17:44.420Z,0.70
2018-08-23T21:20:14.191Z,0.70
2018-08-23T21:22:45.762Z,0.73
2018-08-23T21:25:15.162Z,0.80
2018-08-23T21:27:47.676Z,1.10
2018-08-23T21:30:18.329Z,1.73
2018-08-23T21:32:49.368Z,0.70
2018-08-23T21:35:18.905Z,0.70
2018-08-23T21:37:55.658Z,0.63
2018-08-23T21:40:25.113Z,0.70
2018-08-23T21:42:54.999Z,0.67
2018-08-23T21:45:24.509Z,0.63
2018-08-23T21:47:59.153Z,0.80
2018-08-23T21:50:28.653Z,0.87
2018-08-23T21:53:02.018Z,0.60
2018-08-23T21:55:37.803Z,0.60
2018-08-23T21:58:08.879Z,0.70
2018-08-23T22:00:43.731Z,0.90
2018-08-23T22:03:13.849Z,0.90
2018-08-23T22:05:43.422Z,0.60
2018-08-23T22:08:12.633Z,1.03
2018-08-23T22:10:41.958Z,0.80
2018-08-23T22:13:13.307Z,0.60
2018-08-23T22:15:49.415Z,0.67
2018-08-23T22:18:19.681Z,0.60
2018-08-23T22:20:48.951Z,0.50
2018-08-23T22:23:19.152Z,0.67
2018-08-23T22:25:48.660Z,0.73
2018-08-23T22:28:21.744Z,0.60
2018-08-23T22:30:51.867Z,0.40
2018-08-23T22:33:22.969Z,1.30
2018-08-23T22:35:52.271Z,0.50
2018-08-23T22:38:28.548Z,0.63
2018-08-23T22:40:57.995Z,1.00
2018-08-23T22:43:27.561Z,0.60
2018-08-23T22:45:57.668Z,0.60
2018-08-23T22:48:32.015Z,0.60
2018-08-23T22:51:01.188Z,0.93
2018-08-23T22:53:31.642Z,0.60
2018-08-23T22:56:01.243Z,0.50
2018-08-23T22:58:37.584Z,0.70
2018-08-23T23:01:06.796Z,0.70
2018-08-23T23:03:41.722Z,0.73
2018-08-23T23:06:10.856Z,0.70
2018-08-23T23:08:40.062Z,0.50
2018-08-23T23:11:09.207Z,0.50
2018-08-23T23:13:42.193Z,0.73
2018-08-23T23:16:12.646Z,0.60
2018-08-23T23:18:45.572Z,0.50
2018-08-23T23:21:14.745Z,0.60
2018-08-23T23:23:47.541Z,0.60
2018-08-23T23:26:16.698Z,0.50
2018-08-23T23:28:53.516Z,0.50
2018-08-23T23:31:22.959Z,0.60
2018-08-23T23:33:53.121Z,0.60
2018-08-23T23:36:22.327Z,0.70
2018-08-23T23:38:56.022Z,0.60
2018-08-23T23:41:25.182Z,0.93
2018-08-23T23:44:01.781Z,0.60
2018-08-23T23:46:31.160Z,0.80
2018-08-23T23:49:01.353Z,0.67
2018-08-23T23:51:30.478Z,0.70
2018-08-23T23:54:04.511Z,0.70
2018-08-23T23:56:33.655Z,1.10
2018-08-23T23:59:10.013Z,1.00
